New Middleton, Tennessee
Current Conditions -  °F | °C
As of 2:35 AM on Saturday 29 Nov 2014 (Local Time) from KSRB Reporting Station
Clear Clear  
Wind Chill: 30°   Ceiling: Unl
Heat Index: 34°   Visibility: 10mi
Dew Point: 23°   Wind: 5mph
Humidity: 65%   Direction: 180°S
Pressure: 30.14"   Gusts: NA
Location:  36.1834°N, 86.0199°W
Report Text: KSRB 290835Z AUTO 18004KT 10SM CLR 01/M05 A3014 RMK
Loading
Personal Weather Stations






























Interactive Weather Map New forecast layout! Learn more

10-Day Weather Forecast

Advertisements
Track Severe Weather on mobile